Time;durP1;ratioP1;P1;durP2;ratioP2;P2;SDS_P1;SDS_P2;PMS_P1;PMS_P2;Temp;Humidity;BMP_temperature;BMP_pressure;BME280_temperature;BME280_humidity;BME280_pressure;Samples;Min_cycle;Max_cycle;Signal;HPM_P1;HPM_P2
2022/02/14 00:01:36;;;;;;;7.70;3.13;;;10.60;99.90;;;;;;5087740;28;20035;-76
2022/02/14 00:04:03;;;;;;;7.45;3.95;;;10.60;99.90;;;;;;5087801;28;20562;-76
2022/02/14 00:06:29;;;;;;;5.47;2.67;;;10.70;99.90;;;;;;5085593;28;20053;-77
2022/02/14 00:08:55;;;;;;;8.20;3.40;;;10.70;99.90;;;;;;5092971;28;20529;-77
2022/02/14 00:11:24;;;;;;;4.38;2.60;;;10.60;99.90;;;;;;5085244;28;20472;-77
2022/02/14 00:13:53;;;;;;;5.72;2.90;;;10.60;99.90;;;;;;5088924;28;20035;-76
2022/02/14 00:16:18;;;;;;;6.28;2.60;;;10.60;99.90;;;;;;5087822;28;20034;-76
2022/02/14 00:18:44;;;;;;;8.30;2.47;;;10.60;99.90;;;;;;5091111;28;20027;-75
2022/02/14 00:21:10;;;;;;;6.63;3.28;;;10.70;99.90;;;;;;5091226;28;20050;-76
2022/02/14 00:23:35;;;;;;;9.85;3.28;;;10.60;99.90;;;;;;5086612;28;20408;-76
2022/02/14 00:26:01;;;;;;;5.20;2.70;;;10.70;99.90;;;;;;5084810;28;20024;-76
2022/02/14 00:28:27;;;;;;;10.15;3.13;;;10.60;99.90;;;;;;5089989;28;20024;-76
2022/02/14 00:30:52;;;;;;;5.38;2.63;;;10.60;99.90;;;;;;5088298;28;20020;-76
2022/02/14 00:33:18;;;;;;;6.15;2.83;;;10.60;99.90;;;;;;5090317;28;20043;-76
2022/02/14 00:35:43;;;;;;;7.82;2.80;;;10.60;99.90;;;;;;5088643;28;20028;-76
2022/02/14 00:38:11;;;;;;;5.10;2.65;;;10.60;99.90;;;;;;5085455;28;20477;-76
2022/02/14 00:40:37;;;;;;;7.88;2.97;;;10.60;99.90;;;;;;5087393;28;20028;-76
2022/02/14 00:43:03;;;;;;;6.18;2.28;;;10.70;99.90;;;;;;5089867;28;20047;-76
2022/02/14 00:45:29;;;;;;;8.15;2.97;;;10.60;99.90;;;;;;5089361;28;20024;-76
2022/02/14 00:47:55;;;;;;;6.78;2.80;;;10.70;99.90;;;;;;5088619;28;20104;-76
2022/02/14 00:50:20;;;;;;;6.72;2.80;;;10.70;99.90;;;;;;5086209;28;20107;-76
2022/02/14 00:52:46;;;;;;;6.00;3.00;;;10.70;99.90;;;;;;5093016;28;20381;-76
2022/02/14 00:55:13;;;;;;;5.43;2.40;;;10.70;99.90;;;;;;5092067;28;20028;-76
2022/02/14 00:57:40;;;;;;;8.55;2.72;;;10.70;99.90;;;;;;5087174;28;20392;-76
2022/02/14 01:00:09;;;;;;;5.60;2.92;;;10.70;99.90;;;;;;5087849;28;20027;-76
2022/02/14 01:02:35;;;;;;;6.68;3.05;;;10.70;99.90;;;;;;5089228;28;20358;-77
2022/02/14 01:05:02;;;;;;;5.38;2.50;;;10.70;99.90;;;;;;5091082;28;20372;-77
2022/02/14 01:07:28;;;;;;;4.97;2.83;;;10.60;99.90;;;;;;5092964;28;20389;-77
2022/02/14 01:09:53;;;;;;;11.95;3.15;;;10.70;99.90;;;;;;5089354;28;20024;-76
2022/02/14 01:12:20;;;;;;;4.80;2.47;;;10.70;99.90;;;;;;5089193;28;20508;-77
2022/02/14 01:14:45;;;;;;;5.28;2.45;;;10.70;99.90;;;;;;5083382;28;20139;-77
2022/02/14 01:17:11;;;;;;;12.30;3.30;;;10.70;99.90;;;;;;5090670;28;20115;-78
2022/02/14 01:19:37;;;;;;;7.00;2.78;;;10.70;99.90;;;;;;5090421;28;20020;-77
2022/02/14 01:22:03;;;;;;;6.45;3.38;;;10.70;99.90;;;;;;5089218;28;20358;-76
2022/02/14 01:24:29;;;;;;;11.57;3.33;;;10.70;99.90;;;;;;5084379;28;20120;-76
2022/02/14 01:26:54;;;;;;;11.07;3.00;;;10.70;99.90;;;;;;5093307;28;20127;-78
2022/02/14 01:29:20;;;;;;;9.18;2.67;;;10.70;99.90;;;;;;5082143;28;20098;-76
2022/02/14 01:31:46;;;;;;;6.03;2.17;;;10.80;99.90;;;;;;5084253;28;20043;-77
2022/02/14 01:34:11;;;;;;;5.45;2.70;;;10.70;99.90;;;;;;5084011;28;20024;-76
2022/02/14 01:36:37;;;;;;;7.40;2.83;;;10.70;99.90;;;;;;5087016;28;20029;-76
2022/02/14 01:39:03;;;;;;;11.10;2.88;;;10.70;99.90;;;;;;5088638;28;20051;-76
2022/02/14 01:41:28;;;;;;;4.80;2.28;;;10.70;99.90;;;;;;5085135;28;20481;-76
2022/02/14 01:43:54;;;;;;;8.88;3.00;;;10.60;99.90;;;;;;5091321;28;20028;-76
2022/02/14 01:46:20;;;;;;;4.75;2.50;;;10.70;99.90;;;;;;5082415;28;20024;-76
2022/02/14 01:48:45;;;;;;;6.00;2.70;;;10.70;99.90;;;;;;5085034;28;20085;-77
2022/02/14 01:51:12;;;;;;;7.72;2.50;;;10.80;99.90;;;;;;5080198;28;20035;-76
2022/02/14 01:53:38;;;;;;;6.28;2.58;;;10.80;99.90;;;;;;5088500;28;20032;-75
2022/02/14 01:56:04;;;;;;;4.57;2.70;;;10.80;99.90;;;;;;5090732;28;20040;-76
2022/02/14 01:58:30;;;;;;;9.15;2.47;;;10.80;99.90;;;;;;5082935;28;20480;-75
2022/02/14 02:00:56;;;;;;;8.88;2.33;;;10.80;99.90;;;;;;5092142;28;20039;-75
2022/02/14 02:03:24;;;;;;;3.92;2.50;;;10.90;99.90;;;;;;5091633;28;20039;-77
2022/02/14 02:05:51;;;;;;;6.13;2.13;;;10.90;99.90;;;;;;5087204;28;20016;-76
2022/02/14 02:08:16;;;;;;;6.30;2.88;;;10.90;99.90;;;;;;5083145;28;20028;-76
2022/02/14 02:10:42;;;;;;;10.52;3.00;;;10.90;99.90;;;;;;5084667;28;20024;-76
2022/02/14 02:13:08;;;;;;;6.72;2.92;;;10.90;99.90;;;;;;5084129;28;20203;-76
2022/02/14 02:15:37;;;;;;;7.20;2.17;;;11.00;99.90;;;;;;5086351;28;20020;-76
2022/02/14 02:18:05;;;;;;;11.75;2.55;;;10.90;99.90;;;;;;5083137;28;20032;-76
2022/02/14 02:20:31;;;;;;;5.88;2.35;;;11.00;99.90;;;;;;5084222;28;20016;-77
2022/02/14 02:22:57;;;;;;;8.95;3.20;;;11.00;99.90;;;;;;5090208;28;20099;-76
2022/02/14 02:25:23;;;;;;;4.60;2.50;;;11.00;99.90;;;;;;5092628;28;20035;-76
2022/02/14 02:27:49;;;;;;;6.13;2.00;;;11.00;99.90;;;;;;5085791;28;20024;-76
2022/02/14 02:30:18;;;;;;;6.05;2.50;;;11.00;99.90;;;;;;5090943;28;20478;-76
2022/02/14 02:32:44;;;;;;;5.88;2.38;;;11.00;99.90;;;;;;5084140;28;20036;-75
2022/02/14 02:35:10;;;;;;;7.45;2.40;;;11.00;99.90;;;;;;5084450;28;20021;-76
2022/02/14 02:37:36;;;;;;;7.70;3.40;;;11.00;99.90;;;;;;5085143;28;20024;-77
2022/02/14 02:40:04;;;;;;;6.45;2.08;;;11.10;99.90;;;;;;5089195;28;20078;-76
2022/02/14 02:42:29;;;;;;;7.20;2.08;;;11.10;99.90;;;;;;5079883;28;20039;-76
2022/02/14 02:44:55;;;;;;;5.70;2.30;;;11.10;99.90;;;;;;5088996;28;20464;-76
2022/02/14 02:47:24;;;;;;;3.83;2.00;;;11.20;99.90;;;;;;5082880;28;20083;-76
2022/02/14 02:49:51;;;;;;;7.63;2.63;;;11.20;99.90;;;;;;5086746;28;20115;-76
2022/02/14 02:52:18;;;;;;;2.97;2.10;;;11.10;99.90;;;;;;5082387;28;20044;-76
2022/02/14 02:54:44;;;;;;;5.13;2.38;;;11.10;99.90;;;;;;5089720;28;20030;-76
2022/02/14 02:57:11;;;;;;;7.63;3.35;;;11.20;99.90;;;;;;5085203;28;20020;-76
2022/02/14 02:59:38;;;;;;;5.43;2.22;;;11.20;99.90;;;;;;5085289;28;20381;-76
2022/02/14 03:02:06;;;;;;;6.90;2.47;;;11.20;99.90;;;;;;5088548;28;20063;-76
2022/02/14 03:04:32;;;;;;;9.02;2.40;;;11.10;99.90;;;;;;5088343;28;20021;-77
2022/02/14 03:06:58;;;;;;;5.43;2.20;;;11.20;99.90;;;;;;5086444;28;20534;-77
2022/02/14 03:09:24;;;;;;;9.50;2.20;;;11.20;99.90;;;;;;5089395;28;20016;-77
2022/02/14 03:11:50;;;;;;;6.28;2.28;;;11.20;99.90;;;;;;5091600;28;20093;-76
2022/02/14 03:14:16;;;;;;;8.90;2.30;;;11.20;99.90;;;;;;5087461;28;20115;-77
2022/02/14 03:16:42;;;;;;;5.75;2.30;;;11.10;99.90;;;;;;5086099;28;20103;-77
2022/02/14 03:19:08;;;;;;;3.72;1.92;;;11.10;99.90;;;;;;5086346;28;20024;-76
2022/02/14 03:21:35;;;;;;;4.43;1.90;;;11.10;99.90;;;;;;5087514;28;20062;-77
2022/02/14 03:24:01;;;;;;;7.40;2.25;;;11.10;99.90;;;;;;5091880;28;20358;-76
2022/02/14 03:26:27;;;;;;;7.82;2.33;;;11.10;99.90;;;;;;5091483;28;20032;-76
2022/02/14 03:28:55;;;;;;;3.97;2.03;;;11.20;99.90;;;;;;5091286;28;20020;-77
2022/02/14 03:31:21;;;;;;;6.85;2.17;;;11.20;99.90;;;;;;5085550;28;20024;-77
2022/02/14 03:33:48;;;;;;;5.05;1.88;;;11.10;99.90;;;;;;5092182;28;20124;-77
2022/02/14 03:36:15;;;;;;;5.03;2.63;;;11.20;99.90;;;;;;5091966;28;20032;-76
2022/02/14 03:38:42;;;;;;;6.32;2.17;;;11.20;99.90;;;;;;5085698;28;20078;-76
2022/02/14 03:41:08;;;;;;;6.55;2.30;;;11.20;99.90;;;;;;5092300;28;20077;-76
2022/02/14 03:43:34;;;;;;;9.00;2.28;;;11.20;99.90;;;;;;5086671;28;20060;-76
2022/02/14 03:45:59;;;;;;;3.97;1.95;;;11.20;99.90;;;;;;5091221;28;20437;-76
2022/02/14 03:48:25;;;;;;;7.43;2.20;;;11.20;99.90;;;;;;5093260;28;20034;-76
2022/02/14 03:50:52;;;;;;;3.92;1.88;;;11.30;99.90;;;;;;5094560;28;20476;-76
2022/02/14 03:53:18;;;;;;;4.43;2.22;;;11.30;99.90;;;;;;5088436;28;20086;-76
2022/02/14 03:55:44;;;;;;;4.82;1.90;;;11.30;99.90;;;;;;5092399;28;20028;-76
2022/02/14 03:58:09;;;;;;;10.43;2.38;;;11.30;99.90;;;;;;5087268;28;20047;-76
2022/02/14 04:00:35;;;;;;;7.28;2.40;;;11.30;99.90;;;;;;5092285;28;20060;-76
2022/02/14 04:03:01;;;;;;;3.85;1.80;;;11.30;99.90;;;;;;5088971;28;20107;-76
2022/02/14 04:05:26;;;;;;;3.38;1.80;;;11.30;99.90;;;;;;5086935;28;20081;-76
2022/02/14 04:07:57;;;;;;;3.70;1.88;;;11.30;99.90;;;;;;5093316;28;20024;-76
2022/02/14 04:10:23;;;;;;;4.72;2.00;;;11.20;99.90;;;;;;5091644;28;20024;-76
2022/02/14 04:12:48;;;;;;;4.50;1.75;;;11.20;99.90;;;;;;5092095;28;20044;-76
2022/02/14 04:15:14;;;;;;;8.70;2.13;;;11.30;99.90;;;;;;5084317;28;20024;-78
2022/02/14 04:17:41;;;;;;;5.47;1.70;;;11.30;99.90;;;;;;5089333;28;20029;-77
2022/02/14 04:20:07;;;;;;;4.90;2.28;;;11.20;99.90;;;;;;5090791;28;20026;-76
2022/02/14 04:22:33;;;;;;;2.35;2.10;;;11.30;99.90;;;;;;5086433;28;20072;-76
2022/02/14 04:24:59;;;;;;;3.60;1.88;;;11.30;99.90;;;;;;5092401;28;20063;-76
2022/02/14 04:27:25;;;;;;;5.18;2.17;;;11.30;99.90;;;;;;5086514;28;20020;-77
2022/02/14 04:29:50;;;;;;;2.92;1.83;;;11.30;99.90;;;;;;5090342;28;20016;-76
2022/02/14 04:32:16;;;;;;;2.97;1.67;;;11.40;99.90;;;;;;5091146;28;20036;-76
2022/02/14 04:34:42;;;;;;;4.82;2.13;;;11.30;99.90;;;;;;5093238;28;20159;-76
2022/02/14 04:37:08;;;;;;;4.05;1.80;;;11.30;99.90;;;;;;5093368;28;20481;-76
2022/02/14 04:39:33;;;;;;;6.05;2.13;;;11.40;99.90;;;;;;5087377;28;20035;-77
2022/02/14 04:41:59;;;;;;;3.22;1.70;;;11.40;99.90;;;;;;5092706;28;20028;-76
2022/02/14 04:44:25;;;;;;;4.95;1.98;;;11.40;99.90;;;;;;5089535;28;20095;-77
2022/02/14 04:46:50;;;;;;;5.20;1.98;;;11.40;99.90;;;;;;5092383;28;20066;-76
2022/02/14 04:49:16;;;;;;;4.95;1.70;;;11.40;99.90;;;;;;5086574;28;20020;-76
2022/02/14 04:51:42;;;;;;;4.28;1.52;;;11.40;99.90;;;;;;5089688;28;20398;-76
2022/02/14 04:54:08;;;;;;;4.18;1.50;;;11.40;99.90;;;;;;5092347;28;20017;-76
2022/02/14 04:56:34;;;;;;;4.65;1.73;;;11.40;99.90;;;;;;5083478;28;20028;-76
2022/02/14 04:59:00;;;;;;;4.20;1.90;;;11.40;99.90;;;;;;5090179;28;20036;-76
2022/02/14 05:01:26;;;;;;;4.13;2.28;;;11.30;99.90;;;;;;5091182;28;20406;-75
2022/02/14 05:03:52;;;;;;;6.53;1.70;;;11.40;99.90;;;;;;5085129;28;20042;-76
2022/02/14 05:06:18;;;;;;;3.75;1.60;;;11.40;99.90;;;;;;5087504;28;20029;-77
2022/02/14 05:08:44;;;;;;;4.85;2.08;;;11.50;99.90;;;;;;5085562;28;20103;-77
2022/02/14 05:11:11;;;;;;;4.00;1.80;;;11.40;99.90;;;;;;5091073;28;20028;-77
2022/02/14 05:13:41;;;;;;;4.65;1.83;;;11.50;99.90;;;;;;5084438;28;20036;-77
2022/02/14 05:16:10;;;;;;;3.50;1.88;;;11.50;99.90;;;;;;5086149;28;20111;-78
2022/02/14 05:18:36;;;;;;;7.53;1.85;;;11.50;99.90;;;;;;5092310;28;20070;-77
2022/02/14 05:21:02;;;;;;;4.00;1.42;;;11.50;99.90;;;;;;5087462;28;20052;-77
2022/02/14 05:23:28;;;;;;;2.35;1.65;;;11.50;99.90;;;;;;5089687;28;20036;-76
2022/02/14 05:25:53;;;;;;;5.85;2.47;;;11.50;99.90;;;;;;5091239;28;20082;-77
2022/02/14 05:28:19;;;;;;;4.15;2.13;;;11.50;99.90;;;;;;5086114;28;20046;-77
2022/02/14 05:30:45;;;;;;;1.58;1.40;;;11.50;99.90;;;;;;5086653;28;20016;-77
2022/02/14 05:33:10;;;;;;;3.47;1.45;;;11.50;99.90;;;;;;5087144;28;20503;-77
2022/02/14 05:35:36;;;;;;;6.55;1.95;;;11.50;99.90;;;;;;5090705;28;20116;-76
2022/02/14 05:38:01;;;;;;;4.50;1.90;;;11.50;99.90;;;;;;5093309;28;20027;-77
2022/02/14 05:40:28;;;;;;;3.20;1.90;;;11.40;99.90;;;;;;5086375;28;20028;-76
2022/02/14 05:42:54;;;;;;;3.58;1.70;;;11.50;99.90;;;;;;5086414;28;20032;-75
2022/02/14 05:45:20;;;;;;;3.33;1.92;;;11.50;99.90;;;;;;5087367;28;21922;-76
2022/02/14 05:47:46;;;;;;;5.38;1.80;;;11.50;99.90;;;;;;5086024;28;20024;-76
2022/02/14 05:50:11;;;;;;;4.15;1.80;;;11.60;99.90;;;;;;5089961;28;20028;-76
2022/02/14 05:52:39;;;;;;;3.42;1.50;;;11.60;99.90;;;;;;5082622;28;20138;-76
2022/02/14 05:55:06;;;;;;;2.50;1.58;;;11.50;99.90;;;;;;5089445;28;20024;-76
2022/02/14 05:57:31;;;;;;;4.82;1.88;;;11.60;99.90;;;;;;5087238;28;20021;-77
2022/02/14 05:59:57;;;;;;;2.55;1.67;;;11.60;99.90;;;;;;5089961;28;20034;-76
2022/02/14 06:02:23;;;;;;;2.88;1.52;;;11.60;99.90;;;;;;5086443;28;20480;-76
2022/02/14 06:04:48;;;;;;;2.53;2.20;;;11.60;99.90;;;;;;5086618;28;20485;-77
2022/02/14 06:07:14;;;;;;;3.28;1.48;;;11.60;99.90;;;;;;5082923;28;20073;-76
2022/02/14 06:09:40;;;;;;;6.40;2.00;;;11.50;99.90;;;;;;5090187;28;20024;-76
2022/02/14 06:12:06;;;;;;;7.78;1.60;;;11.60;99.90;;;;;;5084449;28;20037;-77
2022/02/14 06:14:32;;;;;;;3.67;1.80;;;11.60;99.90;;;;;;5088596;28;20034;-77
2022/02/14 06:16:58;;;;;;;6.70;2.35;;;11.60;99.90;;;;;;5085503;28;20028;-77
2022/02/14 06:19:24;;;;;;;6.13;1.55;;;11.70;99.90;;;;;;5087432;28;20028;-76
2022/02/14 06:21:49;;;;;;;10.75;2.38;;;11.60;99.90;;;;;;5090328;28;20024;-75
2022/02/14 06:24:16;;;;;;;2.38;1.50;;;11.60;99.90;;;;;;5084183;28;20028;-78
2022/02/14 06:26:41;;;;;;;4.07;1.88;;;11.60;99.90;;;;;;5089171;28;20489;-76
2022/02/14 06:29:08;;;;;;;6.03;1.92;;;11.70;99.90;;;;;;5084445;28;20028;-76
2022/02/14 06:31:34;;;;;;;8.55;1.70;;;11.70;99.90;;;;;;5089489;28;20547;-76
2022/02/14 06:33:59;;;;;;;2.92;1.40;;;11.70;99.90;;;;;;5082979;28;20189;-75
2022/02/14 06:36:27;;;;;;;3.33;1.70;;;11.80;99.90;;;;;;5087443;28;20032;-75
2022/02/14 06:38:57;;;;;;;2.78;1.40;;;11.70;99.90;;;;;;5082857;28;20426;-76
2022/02/14 06:41:25;;;;;;;2.95;1.58;;;11.60;99.90;;;;;;5085085;28;20020;-75
2022/02/14 06:43:54;;;;;;;6.78;1.73;;;11.70;99.90;;;;;;5084023;28;20039;-75
2022/02/14 06:46:20;;;;;;;6.28;2.10;;;11.70;99.90;;;;;;5089831;28;20076;-75
2022/02/14 06:48:47;;;;;;;3.92;1.60;;;11.80;99.90;;;;;;5083534;28;20103;-75
2022/02/14 06:51:13;;;;;;;4.63;1.90;;;11.80;99.90;;;;;;5088377;28;20056;-74
2022/02/14 06:53:38;;;;;;;2.80;1.50;;;11.80;99.90;;;;;;5084362;28;20166;-75
2022/02/14 06:56:06;;;;;;;3.15;1.40;;;11.70;99.90;;;;;;5086400;28;20534;-77
2022/02/14 06:58:39;;;;;;;6.82;1.88;;;11.70;99.90;;;;;;5093566;28;20019;-76
2022/02/14 07:01:07;;;;;;;2.88;1.85;;;11.70;99.90;;;;;;5087634;28;20066;-76
2022/02/14 07:03:37;;;;;;;3.20;1.63;;;11.70;99.90;;;;;;5088165;28;20444;-76
2022/02/14 07:06:06;;;;;;;6.60;1.80;;;11.80;99.90;;;;;;5087968;28;20024;-76
2022/02/14 07:08:32;;;;;;;2.88;1.80;;;11.80;99.90;;;;;;5087323;28;20028;-76
2022/02/14 07:10:58;;;;;;;3.15;1.75;;;11.80;99.90;;;;;;5089079;28;20039;-75
2022/02/14 07:13:24;;;;;;;4.30;1.70;;;11.80;99.90;;;;;;5091655;28;20044;-76
2022/02/14 07:15:50;;;;;;;5.45;1.70;;;11.80;99.90;;;;;;5089306;28;20039;-76
2022/02/14 07:18:16;;;;;;;4.57;1.75;;;11.90;99.90;;;;;;5092687;28;20028;-75
2022/02/14 07:20:42;;;;;;;4.68;1.95;;;11.80;99.90;;;;;;5091928;28;20024;-77
2022/02/14 07:23:08;;;;;;;4.30;1.55;;;11.70;99.90;;;;;;5084988;28;20035;-76
2022/02/14 07:25:34;;;;;;;4.00;1.63;;;11.80;99.90;;;;;;5095250;28;20375;-76
2022/02/14 07:28:00;;;;;;;3.53;2.00;;;11.70;99.90;;;;;;5087572;28;20027;-76
2022/02/14 07:30:26;;;;;;;2.08;1.40;;;11.70;99.90;;;;;;5090321;28;20107;-76
2022/02/14 07:32:52;;;;;;;2.33;1.25;;;11.70;99.90;;;;;;5087413;28;20127;-77
2022/02/14 07:35:18;;;;;;;4.28;1.77;;;11.60;99.90;;;;;;5091483;28;20476;-76
2022/02/14 07:37:44;;;;;;;2.38;1.50;;;11.60;99.90;;;;;;5087166;28;20031;-76
2022/02/14 07:40:12;;;;;;;3.38;1.45;;;11.60;99.90;;;;;;5089401;28;20069;-76
2022/02/14 07:42:38;;;;;;;3.28;1.40;;;11.60;99.90;;;;;;5087193;28;20436;-77
2022/02/14 07:45:05;;;;;;;3.90;1.55;;;11.70;99.90;;;;;;5091817;28;20103;-77
2022/02/14 07:47:31;;;;;;;2.45;1.70;;;11.70;99.90;;;;;;5091786;28;20602;-77
2022/02/14 07:49:56;;;;;;;4.40;1.70;;;11.60;99.90;;;;;;5087262;28;20024;-77
2022/02/14 07:52:23;;;;;;;2.33;1.58;;;11.60;99.90;;;;;;5090791;28;20045;-76
2022/02/14 07:54:49;;;;;;;2.20;1.60;;;11.70;99.90;;;;;;5089867;28;20020;-77
2022/02/14 07:57:15;;;;;;;2.60;1.38;;;11.60;99.90;;;;;;5084885;28;20035;-77
2022/02/14 07:59:40;;;;;;;3.78;1.25;;;11.60;99.90;;;;;;5090569;28;20024;-77
2022/02/14 08:02:07;;;;;;;3.50;1.88;;;11.60;99.90;;;;;;5090449;28;20036;-77
2022/02/14 08:04:33;;;;;;;2.78;1.77;;;11.60;99.90;;;;;;5088901;28;20016;-76
2022/02/14 08:06:58;;;;;;;2.72;1.40;;;11.60;99.90;;;;;;5090136;28;20043;-76
2022/02/14 08:09:24;;;;;;;2.97;1.75;;;11.60;99.90;;;;;;5091428;28;20048;-76
2022/02/14 08:11:50;;;;;;;4.82;1.90;;;11.60;99.90;;;;;;5085459;28;20061;-75
2022/02/14 08:14:15;;;;;;;3.33;1.80;;;11.60;99.90;;;;;;5090375;28;20107;-77
2022/02/14 08:16:41;;;;;;;3.45;2.00;;;11.60;99.90;;;;;;5091799;28;20660;-77
2022/02/14 08:19:07;;;;;;;3.85;1.27;;;11.60;99.90;;;;;;5091168;28;20153;-78
2022/02/14 08:21:34;;;;;;;3.25;1.13;;;11.60;99.90;;;;;;5090492;28;20024;-79
2022/02/14 08:24:00;;;;;;;2.55;1.80;;;11.50;99.90;;;;;;5092837;28;20085;-77
2022/02/14 08:26:26;;;;;;;4.80;1.38;;;11.50;99.90;;;;;;5092039;28;20028;-77
2022/02/14 08:28:52;;;;;;;2.65;1.35;;;11.50;99.90;;;;;;5092487;28;20040;-77
2022/02/14 08:31:18;;;;;;;4.65;1.58;;;11.60;99.90;;;;;;5089550;28;20024;-78
2022/02/14 08:33:44;;;;;;;1.55;1.45;;;11.60;99.90;;;;;;5084410;28;20537;-76
2022/02/14 08:36:10;;;;;;;3.35;1.42;;;11.50;99.90;;;;;;5089104;28;20034;-78
2022/02/14 08:38:36;;;;;;;3.90;2.00;;;11.60;99.90;;;;;;5089544;28;20105;-76
2022/02/14 08:41:04;;;;;;;5.60;2.42;;;11.50;99.90;;;;;;5089717;28;20028;-76
2022/02/14 08:43:30;;;;;;;4.80;1.80;;;11.50;99.90;;;;;;5086405;28;20427;-73
2022/02/14 08:45:56;;;;;;;2.70;1.70;;;11.50;99.90;;;;;;5086227;28;20473;-75
2022/02/14 08:48:21;;;;;;;1.88;1.52;;;11.60;99.90;;;;;;5088673;28;20042;-76
2022/02/14 08:50:49;;;;;;;4.40;1.88;;;11.60;99.90;;;;;;5089194;28;20038;-77
2022/02/14 08:53:18;;;;;;;2.78;1.60;;;11.50;99.90;;;;;;5088223;28;20048;-81
2022/02/14 08:55:44;;;;;;;1.48;1.38;;;11.60;99.90;;;;;;5085031;28;20137;-75
2022/02/14 08:58:10;;;;;;;4.18;1.70;;;11.40;99.90;;;;;;5090464;28;20564;-76
2022/02/14 09:00:36;;;;;;;1.63;1.35;;;11.50;99.90;;;;;;5092580;28;20077;-75
2022/02/14 09:03:02;;;;;;;2.10;1.50;;;11.50;99.90;;;;;;5092822;28;20083;-75
2022/02/14 09:05:27;;;;;;;4.05;1.70;;;11.50;99.90;;;;;;5090442;28;20430;-75
2022/02/14 09:07:54;;;;;;;5.00;1.63;;;11.50;99.90;;;;;;5085916;28;20079;-75
2022/02/14 09:10:20;;;;;;;1.88;1.52;;;11.50;99.90;;;;;;5087918;28;20514;-75
2022/02/14 09:12:47;;;;;;;1.73;1.60;;;11.50;99.90;;;;;;5085120;28;20652;-75
2022/02/14 09:15:13;;;;;;;3.38;1.73;;;11.40;99.90;;;;;;5090487;28;20515;-75
2022/02/14 09:17:39;;;;;;;2.58;1.85;;;11.40;99.90;;;;;;5083840;28;20052;-76
2022/02/14 09:20:05;;;;;;;2.38;1.90;;;11.40;99.90;;;;;;5088171;28;20051;-75
2022/02/14 09:22:31;;;;;;;2.20;1.80;;;11.30;99.90;;;;;;5087189;28;20063;-76
2022/02/14 09:24:57;;;;;;;1.70;1.60;;;11.40;99.90;;;;;;5089349;28;20078;-76
2022/02/14 09:27:23;;;;;;;1.42;1.15;;;11.40;99.90;;;;;;5091895;28;20551;-76
2022/02/14 09:29:49;;;;;;;3.70;1.65;;;11.30;99.90;;;;;;5087228;28;20035;-75
2022/02/14 09:32:16;;;;;;;1.85;1.33;;;11.40;99.90;;;;;;5086764;28;20396;-77
2022/02/14 09:34:43;;;;;;;5.28;1.60;;;11.40;99.90;;;;;;5088396;28;20103;-76
2022/02/14 09:37:10;;;;;;;3.22;1.20;;;11.40;99.90;;;;;;5089535;28;20487;-76
2022/02/14 09:39:36;;;;;;;2.28;1.27;;;11.40;99.90;;;;;;5085836;28;20038;-76
2022/02/14 09:42:04;;;;;;;1.98;0.98;;;11.50;99.90;;;;;;5088572;28;20123;-75
2022/02/14 09:44:30;;;;;;;6.20;0.90;;;11.50;99.90;;;;;;5089739;28;20036;-76
2022/02/14 09:46:56;;;;;;;2.40;0.90;;;11.50;99.90;;;;;;5087962;28;20017;-76
2022/02/14 09:49:22;;;;;;;2.22;0.70;;;11.60;99.90;;;;;;5085625;28;20027;-75
2022/02/14 09:51:56;;;;;;;1.75;0.50;;;11.60;99.90;;;;;;5087789;28;20075;-76
2022/02/14 09:54:22;;;;;;;1.95;0.88;;;11.60;99.90;;;;;;5085453;28;20012;-77
2022/02/14 09:56:48;;;;;;;6.07;1.00;;;11.70;99.90;;;;;;5089539;28;20028;-76
2022/02/14 09:59:14;;;;;;;0.80;0.73;;;11.80;99.90;;;;;;5086695;28;20020;-76
2022/02/14 10:01:40;;;;;;;2.08;0.90;;;11.80;99.90;;;;;;5078498;28;20054;-76
2022/02/14 10:04:06;;;;;;;3.10;0.85;;;11.70;99.90;;;;;;5084929;28;20070;-77
2022/02/14 10:06:34;;;;;;;1.52;0.80;;;11.60;99.90;;;;;;5086422;28;20036;-76
2022/02/14 10:09:18;;;;;;;3.22;0.80;;;11.70;99.90;;;;;;5085326;28;20028;-76
2022/02/14 10:12:05;;;;;;;1.13;0.65;;;11.70;99.90;;;;;;5084756;28;20035;-75
2022/02/14 10:14:34;;;;;;;3.22;0.77;;;11.80;99.90;;;;;;5088137;28;20122;-77
2022/02/14 10:17:05;;;;;;;3.53;0.95;;;11.70;99.90;;;;;;5090945;28;20042;-75
2022/02/14 10:19:52;;;;;;;4.88;0.95;;;11.60;99.90;;;;;;5080866;28;20023;-75
2022/02/14 10:22:18;;;;;;;2.25;0.60;;;11.70;99.90;;;;;;5083624;28;20028;-76
2022/02/14 10:24:44;;;;;;;1.42;0.57;;;11.80;99.90;;;;;;5088575;28;20503;-76
2022/02/14 10:27:11;;;;;;;4.10;0.90;;;11.90;99.90;;;;;;5086466;28;20043;-75
2022/02/14 10:29:37;;;;;;;3.42;0.98;;;11.80;99.90;;;;;;5087555;28;20418;-75
2022/02/14 10:32:17;;;;;;;3.38;0.90;;;11.90;99.90;;;;;;5088602;28;20454;-74
2022/02/14 10:34:47;;;;;;;1.10;0.60;;;12.00;99.90;;;;;;5086676;28;20353;-75
2022/02/14 10:37:15;;;;;;;5.00;0.90;;;11.90;99.90;;;;;;5082678;28;20018;-76
2022/02/14 10:39:43;;;;;;;3.42;0.65;;;11.90;99.90;;;;;;5089450;28;20106;-75
2022/02/14 10:42:11;;;;;;;3.35;0.90;;;11.90;99.90;;;;;;5084993;28;20099;-75
2022/02/14 10:47:30;;;;;;;2.55;0.80;;;12.20;99.90;;;;;;5088179;28;20035;-74
2022/02/14 10:50:04;;;;;;;2.63;0.70;;;12.20;99.90;;;;;;5084895;28;20512;-74
2022/02/14 10:52:55;;;;;;;3.97;0.85;;;12.30;99.90;;;;;;5083318;28;20040;-74
2022/02/14 10:55:26;;;;;;;1.45;0.80;;;12.40;99.90;;;;;;5081537;28;20021;-74
2022/02/14 10:57:53;;;;;;;3.33;0.80;;;12.50;99.90;;;;;;5087009;28;20389;-73
2022/02/14 11:00:36;;;;;;;2.67;1.02;;;12.50;99.90;;;;;;5084525;28;20103;-74
2022/02/14 11:03:06;;;;;;;1.85;1.08;;;12.50;99.90;;;;;;5088520;28;20063;-75
2022/02/14 11:05:33;;;;;;;2.88;0.68;;;12.40;99.90;;;;;;5082407;28;20048;-79
2022/02/14 11:07:59;;;;;;;1.08;0.77;;;12.40;99.90;;;;;;5089238;28;20119;-80
2022/02/14 11:10:26;;;;;;;5.35;1.40;;;12.40;99.90;;;;;;5084626;28;20560;-84
2022/02/14 11:12:56;;;;;;;3.33;1.17;;;12.30;99.90;;;;;;5085620;28;20491;-78
2022/02/14 11:15:32;;;;;;;2.13;1.25;;;12.20;99.90;;;;;;5085059;28;20047;-79
2022/02/14 11:18:31;;;;;;;1.65;0.98;;;12.20;99.90;;;;;;5085588;28;20043;-85
2022/02/14 11:20:59;;;;;;;5.55;1.27;;;12.20;99.90;;;;;;5079386;28;20035;-84
2022/02/14 11:23:27;;;;;;;7.07;1.23;;;12.20;99.90;;;;;;5084293;28;20020;-83
2022/02/14 11:26:15;;;;;;;6.18;1.00;;;12.10;99.90;;;;;;5091831;28;20020;-81
2022/02/14 11:29:19;;;;;;;2.60;1.08;;;12.30;99.90;;;;;;5078982;28;20496;-77
2022/02/14 11:31:44;;;;;;;5.40;1.00;;;12.30;99.90;;;;;;5088602;28;20092;-78
2022/02/14 11:34:10;;;;;;;2.35;0.98;;;12.30;99.90;;;;;;5082316;28;20020;-75
2022/02/14 11:36:39;;;;;;;4.18;0.80;;;12.30;99.90;;;;;;5087002;28;20031;-75
2022/02/14 11:39:09;;;;;;;2.30;0.90;;;12.30;99.90;;;;;;5084374;28;20143;-75
2022/02/14 11:41:41;;;;;;;2.83;1.00;;;12.20;99.90;;;;;;5090973;28;20028;-77
2022/02/14 11:44:21;;;;;;;2.80;0.98;;;12.20;99.90;;;;;;5094120;28;20118;-83
2022/02/14 11:46:56;;;;;;;4.47;1.05;;;12.20;99.90;;;;;;5092884;28;20057;-80
2022/02/14 11:49:22;;;;;;;5.82;1.02;;;12.20;99.90;;;;;;5089725;28;20024;-81
2022/02/14 11:51:53;;;;;;;3.40;1.00;;;12.20;99.90;;;;;;5085065;28;20153;-82
2022/02/14 11:54:31;;;;;;;3.55;1.30;;;12.10;99.90;;;;;;5088589;28;20043;-80
2022/02/14 11:57:31;;;;;;;4.65;0.90;;;12.20;99.90;;;;;;5089418;28;20028;-81
2022/02/14 12:00:15;;;;;;;4.32;1.13;;;12.10;99.90;;;;;;5083286;28;20032;-82
2022/02/14 12:02:54;;;;;;;3.60;1.45;;;12.00;99.90;;;;;;5089419;28;20965;-82
2022/02/14 12:05:44;;;;;;;4.13;1.30;;;12.10;99.90;;;;;;5085063;28;20115;-82
2022/02/14 12:08:10;;;;;;;8.10;1.45;;;12.00;99.90;;;;;;5087137;28;20033;-82
2022/02/14 12:10:43;;;;;;;3.80;1.27;;;12.10;99.90;;;;;;5093158;28;20043;-80
2022/02/14 12:13:13;;;;;;;2.58;1.23;;;12.10;99.90;;;;;;5086625;28;20052;-81
2022/02/14 12:21:25;;;;;;;8.23;2.03;;;12.50;99.90;;;;;;5083773;28;20105;-78
2022/02/14 12:23:55;;;;;;;5.38;1.40;;;12.60;99.90;;;;;;5091358;28;20024;-74
2022/02/14 12:26:24;;;;;;;6.70;1.23;;;12.70;99.90;;;;;;5086185;28;20051;-73
2022/02/14 12:29:32;;;;;;;6.72;1.75;;;12.70;99.90;;;;;;5092385;28;20032;-74
2022/02/14 12:31:43;;;;;;;8.02;1.35;;;12.70;99.90;;;;;;5086209;28;20109;-74
2022/02/14 12:34:09;;;;;;;6.82;1.30;;;12.80;99.90;;;;;;5092661;28;20031;-75
2022/02/14 12:36:34;;;;;;;8.77;1.48;;;12.90;99.90;;;;;;5091335;28;20027;-74
2022/02/14 12:39:00;;;;;;;6.53;1.70;;;12.90;99.90;;;;;;5091278;28;20089;-76
2022/02/14 12:41:26;;;;;;;8.23;2.17;;;12.90;99.90;;;;;;5092273;28;20374;-75
2022/02/14 12:43:52;;;;;;;5.30;1.42;;;12.90;99.90;;;;;;5089163;28;20036;-78
2022/02/14 12:46:21;;;;;;;7.82;1.70;;;12.80;99.90;;;;;;5088704;28;20047;-77
2022/02/14 12:48:49;;;;;;;6.10;1.83;;;12.70;99.90;;;;;;5093124;28;20532;-76
2022/02/14 12:51:26;;;;;;;7.70;1.60;;;12.70;99.90;;;;;;5086950;28;20028;-78
2022/02/14 12:53:54;;;;;;;4.40;1.30;;;12.70;99.90;;;;;;5087512;28;20040;-80
2022/02/14 12:56:25;;;;;;;6.20;1.55;;;12.90;99.90;;;;;;5091897;28;20354;-81